Time;durP1;ratioP1;P1;durP2;ratioP2;P2;SDS_P1;SDS_P2;PMS_P1;PMS_P2;Temp;Humidity;BMP_temperature;BMP_pressure;BME280_temperature;BME280_humidity;BME280_pressure;Samples;Min_cycle;Max_cycle;Signal;HPM_P1;HPM_P2
2022/08/24 00:00:51;;;;;;;;;;;19.80;99.90;;;;;;5054276;28;19954;-77
2022/08/24 00:03:16;;;;;;;;;;;19.80;99.90;;;;;;5058168;28;19909;-77
2022/08/24 00:05:41;;;;;;;;;;;19.70;99.90;;;;;;5056553;28;20003;-71
2022/08/24 00:08:07;;;;;;;;;;;19.70;99.90;;;;;;5046252;28;19909;-77
2022/08/24 00:10:32;;;;;;;;;;;19.80;99.90;;;;;;5056341;28;19916;-76
2022/08/24 00:12:58;;;;;;;;;;;19.80;99.90;;;;;;5055967;28;19917;-76
2022/08/24 00:15:23;;;;;;;;;;;19.70;99.90;;;;;;5056408;28;20372;-71
2022/08/24 00:17:49;;;;;;;;;;;19.70;99.90;;;;;;5056093;28;20287;-77
2022/08/24 00:20:15;;;;;;;;;;;19.70;99.90;;;;;;5054452;28;20295;-76
2022/08/24 00:22:41;;;;;;;;;;;19.60;99.90;;;;;;5044780;28;20374;-77
2022/08/24 00:25:07;;;;;;;;;;;19.60;99.90;;;;;;5043031;28;19956;-77
2022/08/24 00:27:33;;;;;;;;;;;19.60;99.90;;;;;;5056219;28;19963;-77
2022/08/24 00:29:58;;;;;;;;;;;19.60;99.90;;;;;;5055790;28;19920;-71
2022/08/24 00:32:24;;;;;;;;;;;19.60;99.90;;;;;;5055910;28;19967;-70
2022/08/24 00:34:49;;;;;;;;;;;19.60;99.90;;;;;;5053529;28;19935;-77
2022/08/24 00:37:15;;;;;;;;;;;19.50;99.90;;;;;;5036182;28;19983;-77
2022/08/24 00:39:41;;;;;;;;;;;19.50;99.90;;;;;;5051560;28;19909;-76
2022/08/24 00:42:06;;;;;;;;;;;19.50;99.90;;;;;;5047896;28;19913;-76
2022/08/24 00:44:32;;;;;;;;;;;19.50;99.90;;;;;;5035531;28;20000;-71
2022/08/24 00:47:00;;;;;;;;;;;19.50;99.90;;;;;;5035741;28;19916;-77
2022/08/24 00:49:32;;;;;;;;;;;19.50;99.90;;;;;;5059707;28;20321;-76
2022/08/24 00:52:04;;;;;;;;;;;19.50;99.90;;;;;;5055978;28;19931;-76
2022/08/24 00:54:31;;;;;;;;;;;19.50;99.90;;;;;;5055517;28;19967;-76
2022/08/24 00:56:59;;;;;;;;;;;19.50;99.90;;;;;;5055236;28;20390;-77
2022/08/24 00:59:27;;;;;;;;;;;19.50;99.90;;;;;;5043400;28;19956;-70
2022/08/24 01:01:55;;;;;;;;;;;19.40;99.90;;;;;;5064243;28;19909;-77
2022/08/24 01:04:27;;;;;;;;;;;19.40;99.90;;;;;;5059823;28;19913;-77
2022/08/24 01:06:54;;;;;;;;;;;19.40;99.90;;;;;;5055453;28;19909;-70
2022/08/24 01:09:19;;;;;;;;;;;19.40;99.90;;;;;;5055249;28;19917;-71
2022/08/24 01:11:45;;;;;;;;;;;19.30;99.90;;;;;;5055243;28;20054;-70
2022/08/24 01:14:11;;;;;;;;;;;19.30;99.90;;;;;;5054871;28;20010;-77
2022/08/24 01:19:52;;;;;;;;;;;19.30;99.90;;;;;;5046246;28;19916;-76
2022/08/24 01:22:41;;;;;;;;;;;19.20;99.90;;;;;;5061419;28;20363;-70
2022/08/24 01:25:07;;;;;;;;;;;19.20;99.90;;;;;;5055344;28;19954;-70
2022/08/24 01:27:33;;;;;;;;;;;19.20;99.90;;;;;;5054910;28;19908;-70
2022/08/24 01:30:00;;;;;;;;;;;19.20;99.90;;;;;;5054357;28;19921;-71
2022/08/24 01:32:29;;;;;;;;;;;19.20;99.90;;;;;;5054833;28;19920;-76
2022/08/24 01:34:55;;;;;;;;;;;19.20;99.90;;;;;;5051812;28;19908;-76
2022/08/24 01:37:21;;;;;;;;;;;19.20;99.90;;;;;;5035073;28;20012;-70
2022/08/24 01:39:48;;;;;;;;;;;19.10;99.90;;;;;;5051050;28;19917;-77
2022/08/24 01:42:14;;;;;;;;;;;19.20;99.90;;;;;;5044994;28;19909;-77
2022/08/24 01:44:40;;;;;;;;;;;19.10;99.90;;;;;;5034170;28;20253;-76
2022/08/24 01:47:06;;;;;;;;;;;19.10;99.90;;;;;;5035004;28;19916;-70
2022/08/24 01:49:34;;;;;;;;;;;19.10;99.90;;;;;;5056964;28;19913;-70
2022/08/24 01:52:00;;;;;;;;;;;19.10;99.90;;;;;;5054782;28;19912;-77
2022/08/24 01:54:26;;;;;;;;;;;19.10;99.90;;;;;;5054300;28;19962;-77
2022/08/24 01:56:51;;;;;;;;;;;19.00;99.90;;;;;;5054244;28;20310;-76
2022/08/24 01:59:18;;;;;;;;;;;19.00;99.90;;;;;;5039960;28;20490;-77
2022/08/24 02:01:50;;;;;;;;;;;19.00;99.90;;;;;;5058794;28;19908;-70
2022/08/24 02:04:16;;;;;;;;;;;19.00;99.90;;;;;;5054485;28;19916;-70
2022/08/24 02:06:43;;;;;;;;;;;18.90;99.90;;;;;;5054291;28;19909;-77
2022/08/24 02:09:09;;;;;;;;;;;18.90;99.90;;;;;;5054069;28;19912;-77
2022/08/24 02:11:35;;;;;;;;;;;18.90;99.90;;;;;;5053766;28;19915;-76
2022/08/24 02:14:02;;;;;;;;;;;18.80;99.90;;;;;;5053587;28;20283;-70
2022/08/24 02:16:27;;;;;;;;;;;18.80;99.90;;;;;;5054254;28;20280;-71
2022/08/24 02:18:53;;;;;;;;;;;18.80;99.90;;;;;;5053643;28;19910;-77
2022/08/24 02:21:18;;;;;;;;;;;18.80;99.90;;;;;;5062711;28;20007;-76
2022/08/24 02:23:44;;;;;;;;;;;18.80;99.90;;;;;;5057432;28;19945;-76
2022/08/24 02:26:10;;;;;;;;;;;18.70;99.90;;;;;;5054169;28;20364;-70
2022/08/24 02:28:36;;;;;;;;;;;18.70;99.90;;;;;;5053649;28;20068;-76
2022/08/24 02:31:04;;;;;;;;;;;18.70;99.90;;;;;;5053576;28;20033;-77
2022/08/24 02:33:30;;;;;;;;;;;18.70;99.90;;;;;;5053556;28;19921;-77
2022/08/24 02:35:56;;;;;;;;;;;18.60;99.90;;;;;;5042252;28;19958;-77
2022/08/24 02:38:22;;;;;;;;;;;18.60;99.90;;;;;;5038565;28;20393;-77
2022/08/24 02:40:48;;;;;;;;;;;18.60;99.90;;;;;;5053737;28;20003;-77
2022/08/24 02:43:13;;;;;;;;;;;18.50;99.90;;;;;;5034743;28;20014;-76
2022/08/24 02:45:39;;;;;;;;;;;18.50;99.90;;;;;;5033570;28;19952;-70
2022/08/24 02:48:05;;;;;;;;;;;18.50;99.90;;;;;;5044847;28;19916;-70
2022/08/24 02:50:30;;;;;;;;;;;18.50;99.90;;;;;;5052692;28;19909;-76
2022/08/24 02:52:56;;;;;;;;;;;18.40;99.90;;;;;;5053132;28;19920;-70
2022/08/24 02:55:21;;;;;;;;;;;18.40;99.90;;;;;;5053279;28;19908;-71
2022/08/24 02:57:47;;;;;;;;;;;18.30;99.90;;;;;;5052685;28;19958;-76
2022/08/24 03:00:14;;;;;;;;;;;18.30;99.90;;;;;;5042472;28;20255;-71
2022/08/24 03:02:39;;;;;;;;;;;18.30;99.90;;;;;;5056612;28;19916;-70
2022/08/24 03:05:06;;;;;;;;;;;18.30;99.90;;;;;;5053120;28;19915;-76
2022/08/24 03:07:31;;;;;;;;;;;18.20;99.90;;;;;;5052441;28;20004;-70
2022/08/24 03:09:57;;;;;;;;;;;18.20;99.90;;;;;;5053062;28;20403;-76
2022/08/24 03:12:22;;;;;;;;;;;18.20;99.90;;;;;;5053139;28;19916;-77
2022/08/24 03:14:48;;;;;;;;;;;18.20;99.90;;;;;;5052915;28;19956;-77
2022/08/24 03:17:13;;;;;;;;;;;18.10;99.90;;;;;;5053348;28;20003;-77
2022/08/24 03:19:39;;;;;;;;;;;18.20;99.90;;;;;;5052650;28;20376;-70
2022/08/24 03:22:04;;;;;;;;;;;18.20;99.90;;;;;;5055554;28;19909;-71
2022/08/24 03:24:30;;;;;;;;;;;18.10;99.90;;;;;;5054246;28;20505;-70
2022/08/24 03:26:56;;;;;;;;;;;18.10;99.90;;;;;;5057514;28;19909;-76
2022/08/24 03:29:21;;;;;;;;;;;18.10;99.90;;;;;;5056966;28;19924;-70
2022/08/24 03:31:47;;;;;;;;;;;18.10;99.90;;;;;;5056781;28;19913;-70
2022/08/24 03:34:13;;;;;;;;;;;18.20;99.90;;;;;;5049853;28;19917;-70
2022/08/24 03:36:39;;;;;;;;;;;18.20;99.90;;;;;;5037199;28;19972;-76
2022/08/24 03:39:05;;;;;;;;;;;18.20;99.90;;;;;;5047611;28;19915;-76
2022/08/24 03:41:31;;;;;;;;;;;18.20;99.90;;;;;;5057035;28;19908;-77
2022/08/24 03:43:56;;;;;;;;;;;18.20;99.90;;;;;;5037018;28;19932;-77
2022/08/24 03:46:29;;;;;;;;;;;18.10;99.90;;;;;;5036883;28;19976;-70
2022/08/24 03:48:56;;;;;;;;;;;18.10;99.90;;;;;;5061041;28;20284;-77
2022/08/24 03:51:23;;;;;;;;;;;18.10;99.90;;;;;;5056036;28;19915;-77
2022/08/24 03:53:50;;;;;;;;;;;18.10;99.90;;;;;;5056722;28;19939;-70
2022/08/24 03:56:17;;;;;;;;;;;18.10;99.90;;;;;;5056960;28;20007;-76
2022/08/24 03:58:43;;;;;;;;;;;18.10;99.90;;;;;;5050761;28;20004;-76
2022/08/24 04:01:09;;;;;;;;;;;18.10;99.90;;;;;;5058474;28;19909;-77
2022/08/24 04:03:39;;;;;;;;;;;18.10;99.90;;;;;;5056378;28;20195;-77
2022/08/24 04:06:04;;;;;;;;;;;18.10;99.90;;;;;;5056532;28;19909;-76
2022/08/24 04:08:30;;;;;;;;;;;18.10;99.90;;;;;;5056323;28;20253;-76
2022/08/24 04:10:56;;;;;;;;;;;18.10;99.90;;;;;;5055913;28;20009;-77
2022/08/24 04:13:22;;;;;;;;;;;18.10;99.90;;;;;;5055913;28;19919;-71
2022/08/24 04:15:50;;;;;;;;;;;18.10;99.90;;;;;;5056354;28;19913;-76
2022/08/24 04:18:15;;;;;;;;;;;18.00;99.90;;;;;;5055301;28;20371;-76
2022/08/24 04:20:42;;;;;;;;;;;18.00;99.90;;;;;;5059298;28;19914;-76
2022/08/24 04:23:08;;;;;;;;;;;18.00;99.90;;;;;;5073991;28;20326;-77
2022/08/24 04:25:40;;;;;;;;;;;18.00;99.90;;;;;;5054394;28;19995;-71
2022/08/24 04:28:05;;;;;;;;;;;18.00;99.90;;;;;;5055968;28;19916;-76
2022/08/24 04:30:31;;;;;;;;;;;18.00;99.90;;;;;;5055815;28;20331;-77
2022/08/24 04:32:57;;;;;;;;;;;18.00;99.90;;;;;;5055821;28;20024;-70
2022/08/24 04:35:22;;;;;;;;;;;18.00;99.90;;;;;;5036837;28;19963;-76
2022/08/24 04:37:48;;;;;;;;;;;18.00;99.90;;;;;;5055674;28;19995;-76
2022/08/24 04:40:14;;;;;;;;;;;18.00;99.90;;;;;;5055462;28;19912;-76
2022/08/24 04:42:39;;;;;;;;;;;18.00;99.90;;;;;;5047577;28;19933;-77
2022/08/24 04:45:05;;;;;;;;;;;18.00;99.90;;;;;;5035654;28;20461;-76
2022/08/24 04:47:31;;;;;;;;;;;18.00;99.90;;;;;;5042951;28;19909;-77
2022/08/24 04:49:56;;;;;;;;;;;18.00;99.90;;;;;;5061602;28;19916;-70
2022/08/24 04:52:22;;;;;;;;;;;18.00;99.90;;;;;;5054981;28;19962;-76
2022/08/24 04:54:47;;;;;;;;;;;18.00;99.90;;;;;;5055721;28;19916;-77
2022/08/24 04:57:13;;;;;;;;;;;18.00;99.90;;;;;;5055231;28;19909;-77
2022/08/24 04:59:40;;;;;;;;;;;18.00;99.90;;;;;;5047658;28;19916;-70
2022/08/24 05:02:05;;;;;;;;;;;18.00;99.90;;;;;;5058810;28;19909;-70
2022/08/24 05:04:31;;;;;;;;;;;18.10;99.90;;;;;;5055305;28;19913;-70
2022/08/24 05:06:56;;;;;;;;;;;18.00;99.90;;;;;;5055298;28;20414;-77
2022/08/24 05:09:22;;;;;;;;;;;18.00;99.90;;;;;;5055272;28;20456;-77
2022/08/24 05:11:48;;;;;;;;;;;18.00;99.90;;;;;;5054877;28;19909;-76
2022/08/24 05:14:13;;;;;;;;;;;18.00;99.90;;;;;;5054984;28;19913;-70
2022/08/24 05:16:39;;;;;;;;;;;18.00;99.90;;;;;;5055164;28;20284;-70
2022/08/24 05:19:05;;;;;;;;;;;18.00;99.90;;;;;;5054949;28;19916;-77
2022/08/24 05:21:31;;;;;;;;;;;18.00;99.90;;;;;;5060626;28;19909;-77
2022/08/24 05:23:57;;;;;;;;;;;18.00;99.90;;;;;;5055216;28;19916;-77
2022/08/24 05:26:24;;;;;;;;;;;18.00;99.90;;;;;;5050843;28;19956;-76
2022/08/24 05:28:52;;;;;;;;;;;18.00;99.90;;;;;;5054239;28;19919;-72
2022/08/24 05:31:19;;;;;;;;;;;18.00;99.90;;;;;;5054861;28;19920;-71
2022/08/24 05:33:45;;;;;;;;;;;18.00;99.90;;;;;;5054714;28;20034;-77
2022/08/24 05:36:30;;;;;;;;;;;18.00;99.90;;;;;;5050520;28;19955;-71
2022/08/24 05:38:57;;;;;;;;;;;18.00;99.90;;;;;;5054844;28;19908;-71
2022/08/24 05:41:23;;;;;;;;;;;18.10;99.90;;;;;;5051954;28;19917;-70
2022/08/24 05:43:49;;;;;;;;;;;18.00;99.90;;;;;;5040061;28;19916;-71
2022/08/24 05:46:14;;;;;;;;;;;18.10;99.90;;;;;;5054092;28;19956;-71
2022/08/24 05:48:40;;;;;;;;;;;18.00;99.90;;;;;;5032919;28;19909;-76
2022/08/24 05:51:07;;;;;;;;;;;18.10;99.90;;;;;;5051906;28;19967;-77
2022/08/24 05:53:33;;;;;;;;;;;18.10;99.90;;;;;;5040139;28;19999;-71
2022/08/24 05:56:06;;;;;;;;;;;18.20;99.90;;;;;;5051136;28;20008;-71
2022/08/24 05:58:31;;;;;;;;;;;18.20;99.90;;;;;;5049402;28;19947;-70
2022/08/24 06:00:58;;;;;;;;;;;18.20;99.90;;;;;;5047815;28;20401;-76
2022/08/24 06:03:24;;;;;;;;;;;18.30;99.90;;;;;;5053620;28;19909;-71
2022/08/24 06:05:51;;;;;;;;;;;18.30;99.90;;;;;;5052446;28;20003;-76
2022/08/24 06:08:17;;;;;;;;;;;18.30;99.90;;;;;;5053722;28;19908;-77
2022/08/24 06:10:46;;;;;;;;;;;18.40;99.90;;;;;;5053774;28;19909;-71
2022/08/24 06:13:13;;;;;;;;;;;18.50;99.90;;;;;;5040648;28;20347;-71
2022/08/24 06:15:39;;;;;;;;;;;18.50;99.90;;;;;;5036866;28;20314;-71
2022/08/24 06:18:05;;;;;;;;;;;18.60;99.90;;;;;;5046051;28;20003;-76
2022/08/24 06:20:31;;;;;;;;;;;18.60;99.90;;;;;;5049899;28;20376;-76
2022/08/24 06:22:56;;;;;;;;;;;18.70;99.90;;;;;;5052185;28;19913;-71
2022/08/24 06:28:05;;;;;;;;;;;18.90;99.90;;;;;;5039218;28;20004;-73
2022/08/24 06:30:31;;;;;;;;;;;18.90;99.90;;;;;;5048154;28;20011;-71
2022/08/24 06:32:58;;;;;;;;;;;19.10;99.90;;;;;;5043779;28;20410;-71
2022/08/24 06:35:23;;;;;;;;;;;19.20;99.90;;;;;;5051829;28;20287;-76
2022/08/24 06:37:51;;;;;;;;;;;19.30;99.90;;;;;;5050473;28;20142;-76
2022/08/24 06:40:19;;;;;;;;;;;19.40;99.90;;;;;;5051690;28;19913;-71
2022/08/24 06:42:45;;;;;;;;;;;19.50;99.90;;;;;;5050169;28;19960;-76
2022/08/24 06:45:10;;;;;;;;;;;19.60;99.90;;;;;;5047782;28;19913;-77
2022/08/24 06:47:36;;;;;;;;;;;19.70;99.90;;;;;;5051517;28;20006;-70
2022/08/24 06:50:01;;;;;;;;;;;19.80;99.90;;;;;;5051981;28;19913;-75
2022/08/24 06:52:27;;;;;;;;;;;20.00;99.90;;;;;;5047494;28;19908;-76
2022/08/24 06:54:53;;;;;;;;;;;20.10;99.90;;;;;;5050834;28;19913;-76
2022/08/24 06:57:18;;;;;;;;;;;20.20;99.90;;;;;;5047507;28;19909;-77
2022/08/24 06:59:44;;;;;;;;;;;20.40;99.90;;;;;;5047412;28;19967;-76
2022/08/24 07:02:14;;;;;;;;;;;20.50;99.90;;;;;;5042824;28;19962;-71
2022/08/24 07:04:40;;;;;;;;;;;20.70;99.90;;;;;;5043079;28;19917;-76
2022/08/24 07:07:05;;;;;;;;;;;20.80;99.90;;;;;;5039823;28;19913;-76
2022/08/24 07:09:31;;;;;;;;;;;21.00;99.90;;;;;;5040451;28;19924;-71
2022/08/24 07:11:56;;;;;;;;;;;21.20;99.90;;;;;;5046660;28;19917;-77
2022/08/24 07:14:22;;;;;;;;;;;21.30;99.90;;;;;;5042977;28;20264;-71
2022/08/24 07:16:47;;;;;;;;;;;21.50;99.90;;;;;;5048087;28;19924;-71
2022/08/24 07:19:13;;;;;;;;;;;21.70;99.90;;;;;;5047401;28;19909;-77
2022/08/24 07:21:39;;;;;;;;;;;21.90;99.90;;;;;;5044323;28;19991;-76
2022/08/24 07:24:06;;;;;;;;;;;22.00;99.90;;;;;;5048758;28;19967;-71
2022/08/24 07:26:31;;;;;;;;;;;22.10;99.90;;;;;;5049724;28;20296;-71
2022/08/24 07:29:08;;;;;;;;;;;22.30;99.90;;;;;;5049905;28;19912;-71
2022/08/24 07:31:35;;;;;;;;;;;22.40;99.90;;;;;;5047475;28;20295;-71
2022/08/24 07:34:02;;;;;;;;;;;22.60;99.90;;;;;;5048264;28;19921;-76
2022/08/24 07:36:28;;;;;;;;;;;22.70;99.90;;;;;;5049444;28;19940;-77
2022/08/24 07:38:54;;;;;;;;;;;22.80;99.90;;;;;;5046343;28;19919;-72
2022/08/24 07:41:20;;;;;;;;;;;23.00;99.90;;;;;;5049910;28;19913;-71
2022/08/24 07:43:46;;;;;;;;;;;23.10;99.90;;;;;;5050242;28;20406;-76
2022/08/24 07:46:14;;;;;;;;;;;23.30;99.90;;;;;;5044820;28;19925;-76
2022/08/24 07:48:39;;;;;;;;;;;23.50;99.90;;;;;;5035107;28;19920;-77
2022/08/24 07:51:06;;;;;;;;;;;23.70;99.90;;;;;;5035254;28;19917;-76
2022/08/24 07:53:32;;;;;;;;;;;23.90;99.90;;;;;;5040417;28;19921;-72
2022/08/24 07:55:57;;;;;;;;;;;24.20;99.90;;;;;;5036582;28;19931;-71
2022/08/24 07:58:23;;;;;;;;;;;24.40;99.90;;;;;;5042980;28;19909;-71
2022/08/24 08:00:49;;;;;;;;;;;24.60;99.90;;;;;;5045494;28;19960;-77
2022/08/24 08:03:14;;;;;;;;;;;25.10;99.90;;;;;;5049378;28;19909;-77
2022/08/24 08:05:40;;;;;;;;;;;25.50;99.90;;;;;;5039750;28;19913;-72
2022/08/24 08:08:06;;;;;;;;;;;27.10;99.90;;;;;;5049513;28;20039;-72
2022/08/24 08:10:34;;;;;;;;;;;30.40;99.90;;;;;;5046604;28;19913;-77
2022/08/24 08:13:03;;;;;;;;;;;32.80;99.00;;;;;;5052116;28;19917;-75
2022/08/24 08:15:28;;;;;;;;;;;34.30;96.60;;;;;;5047902;28;19916;-70
2022/08/24 08:17:54;;;;;;;;;;;34.80;95.70;;;;;;5053865;28;19909;-71
2022/08/24 08:20:19;;;;;;;;;;;35.60;94.60;;;;;;5054256;28;20406;-70
2022/08/24 08:25:30;;;;;;;;;;;36.80;93.10;;;;;;5049762;28;19920;-70
2022/08/24 08:27:56;;;;;;;;;;;36.90;92.60;;;;;;5049138;28;19913;-75
2022/08/24 08:30:21;;;;;;;;;;;37.40;92.30;;;;;;5052573;28;20362;-71
2022/08/24 08:32:47;;;;;;;;;;;37.70;91.70;;;;;;5049165;28;20309;-71
2022/08/24 08:35:12;;;;;;;;;;;38.10;91.30;;;;;;5053344;28;20395;-76
2022/08/24 08:37:38;;;;;;;;;;;38.10;90.90;;;;;;5052826;28;19909;-76
2022/08/24 08:40:06;;;;;;;;;;;38.00;90.80;;;;;;5052897;28;19916;-73
2022/08/24 08:42:37;;;;;;;;;;;38.20;90.70;;;;;;5053509;28;19909;-76
2022/08/24 08:45:09;;;;;;;;;;;38.60;90.20;;;;;;5053338;28;19935;-76
2022/08/24 08:47:47;;;;;;;;;;;39.30;89.60;;;;;;5054296;28;19913;-76
2022/08/24 08:50:20;;;;;;;;;;;39.40;89.60;;;;;;5044908;28;20299;-71
2022/08/24 08:52:50;;;;;;;;;;;39.20;88.10;;;;;;5052637;28;19909;-76
2022/08/24 08:55:34;;;;;;;;;;;39.30;88.50;;;;;;5052357;28;19909;-76
2022/08/24 08:58:06;;;;;;;;;;;39.40;88.00;;;;;;5049430;28;20352;-76
2022/08/24 09:00:47;;;;;;;;;;;39.50;87.50;;;;;;5052741;28;19961;-76
2022/08/24 09:03:13;;;;;;;;;;;39.30;87.00;;;;;;5047094;28;20371;-76
2022/08/24 09:05:46;;;;;;;;;;;40.30;86.20;;;;;;5053688;28;19916;-75
2022/08/24 09:08:27;;;;;;;;;;;39.90;86.20;;;;;;5054885;28;19909;-75
2022/08/24 09:10:54;;;;;;;;;;;40.30;85.90;;;;;;5056304;28;19920;-76
2022/08/24 09:13:33;;;;;;;;;;;40.10;85.60;;;;;;5050986;28;19964;-74
2022/08/24 09:16:16;;;;;;;;;;;40.10;85.50;;;;;;5052874;28;19963;-76
2022/08/24 09:19:00;;;;;;;;;;;40.10;85.40;;;;;;5050850;28;19913;-76
2022/08/24 09:21:32;;;;;;;;;;;40.40;84.60;;;;;;5045653;28;19919;-76
2022/08/24 09:24:00;;;;;;;;;;;40.70;84.50;;;;;;5052580;28;19913;-71
2022/08/24 09:26:26;;;;;;;;;;;41.10;84.20;;;;;;5052172;28;20423;-71
2022/08/24 09:28:57;;;;;;;;;;;41.50;83.00;;;;;;5059036;28;19920;-76
2022/08/24 09:31:25;;;;;;;;;;;41.70;82.70;;;;;;5051875;28;20019;-77
2022/08/24 09:34:00;;;;;;;;;;;41.50;82.10;;;;;;5052532;28;20358;-71
2022/08/24 09:36:38;;;;;;;;;;;41.30;82.50;;;;;;5051365;28;19920;-72
2022/08/24 09:39:07;;;;;;;;;;;41.60;82.30;;;;;;5049240;28;20361;-71
2022/08/24 09:41:35;;;;;;;;;;;41.90;82.00;;;;;;5050273;28;19912;-71
2022/08/24 09:44:03;;;;;;;;;;;41.60;81.10;;;;;;5050475;28;19916;-72
2022/08/24 09:46:47;;;;;;;;;;;41.90;81.40;;;;;;5051107;28;20295;-77
2022/08/24 09:49:13;;;;;;;;;;;41.80;81.20;;;;;;5051239;28;19916;-71
2022/08/24 09:51:41;;;;;;;;;;;42.00;80.70;;;;;;5053375;28;19908;-71
2022/08/24 09:54:16;;;;;;;;;;;42.20;81.80;;;;;;5051579;28;19994;-76
2022/08/24 09:56:48;;;;;;;;;;;42.30;80.30;;;;;;5052233;28;19908;-76
2022/08/24 09:59:34;;;;;;;;;;;41.30;80.50;;;;;;5051057;28;19916;-76
2022/08/24 10:02:35;;;;;;;;;;;41.30;81.10;;;;;;5051854;28;19963;-72
2022/08/24 10:05:01;;;;;;;;;;;41.50;80.90;;;;;;5026791;28;19967;-77
2022/08/24 10:07:30;;;;;;;;;;;41.80;79.90;;;;;;5029900;28;19956;-76
2022/08/24 10:10:01;;;;;;;;;;;41.90;80.30;;;;;;5026219;28;20000;-76
2022/08/24 10:12:46;;;;;;;;;;;41.90;79.70;;;;;;5026487;28;19923;-72
2022/08/24 10:15:34;;;;;;;;;;;41.30;78.80;;;;;;5028126;28;19917;-71
2022/08/24 10:18:00;;;;;;;;;;;41.30;79.10;;;;;;4992131;28;19917;-72
2022/08/24 10:20:42;;;;;;;;;;;41.40;79.10;;;;;;5030524;28;19924;-76
2022/08/24 10:23:26;;;;;;;;;;;41.20;79.30;;;;;;5029595;28;20373;-76
2022/08/24 10:25:55;;;;;;;;;;;40.00;80.40;;;;;;5024166;28;19920;-76
2022/08/24 10:28:39;;;;;;;;;;;40.50;80.20;;;;;;5027848;28;19948;-76
2022/08/24 10:31:09;;;;;;;;;;;40.20;79.30;;;;;;5027286;28;20078;-71
2022/08/24 10:33:41;;;;;;;;;;;39.70;80.30;;;;;;5024737;28;19921;-76
2022/08/24 10:36:16;;;;;;;;;;;39.50;80.00;;;;;;5027237;28;19913;-76
2022/08/24 10:41:25;;;;;;;;;;;39.50;80.60;;;;;;5049710;28;19928;-72
2022/08/24 10:43:51;;;;;;;;;;;39.00;81.00;;;;;;5049865;28;19916;-76
2022/08/24 10:46:17;;;;;;;;;;;38.70;80.50;;;;;;5045183;28;19995;-76
2022/08/24 10:48:49;;;;;;;;;;;38.90;79.90;;;;;;5049350;28;19913;-71
2022/08/24 10:51:41;;;;;;;;;;;38.90;80.80;;;;;;5048486;28;20398;-71
2022/08/24 10:54:10;;;;;;;;;;;38.10;81.40;;;;;;5047544;28;19931;-71
2022/08/24 10:56:38;;;;;;;;;;;36.90;82.70;;;;;;5045779;28;20344;-76
2022/08/24 10:59:12;;;;;;;;;;;36.60;83.10;;;;;;5049829;28;19921;-76
2022/08/24 11:01:38;;;;;;;;;;;36.90;83.20;;;;;;5049877;28;19912;-76
2022/08/24 11:04:08;;;;;;;;;;;36.40;83.40;;;;;;5050321;28;20003;-76
2022/08/24 11:06:37;;;;;;;;;;;35.90;83.50;;;;;;5050136;28;20311;-71
2022/08/24 11:09:05;;;;;;;;;;;35.30;84.20;;;;;;5050544;28;19917;-71
2022/08/24 11:11:34;;;;;;;;;;;35.40;84.30;;;;;;5041100;28;19920;-75
2022/08/24 11:14:02;;;;;;;;;;;36.40;83.40;;;;;;5047779;28;19967;-76
2022/08/24 11:16:31;;;;;;;;;;;35.80;83.30;;;;;;5049649;28;20003;-76
2022/08/24 11:18:58;;;;;;;;;;;35.20;84.00;;;;;;5047801;28;20344;-76
2022/08/24 11:21:36;;;;;;;;;;;34.60;84.80;;;;;;5052273;28;19916;-71
2022/08/24 11:24:03;;;;;;;;;;;34.10;84.70;;;;;;5053039;28;19920;-76
2022/08/24 11:26:29;;;;;;;;;;;33.80;86.10;;;;;;5049837;28;19956;-76
2022/08/24 11:28:59;;;;;;;;;;;33.50;86.10;;;;;;5054460;28;19967;-75
2022/08/24 11:31:31;;;;;;;;;;;33.20;86.50;;;;;;5049973;28;19999;-75
2022/08/24 11:33:59;;;;;;;;;;;32.90;87.10;;;;;;5052051;28;19959;-70
2022/08/24 11:36:26;;;;;;;;;;;32.90;87.10;;;;;;5049615;28;19908;-75
2022/08/24 11:39:11;;;;;;;;;;;32.80;87.10;;;;;;5049633;28;19949;-76
2022/08/24 11:41:44;;;;;;;;;;;32.60;87.30;;;;;;5048398;28;19982;-76
2022/08/24 11:44:16;;;;;;;;;;;32.60;87.90;;;;;;5049732;28;20371;-75
2022/08/24 11:46:56;;;;;;;;;;;32.90;88.10;;;;;;5060933;28;20256;-71
2022/08/24 11:49:26;;;;;;;;;;;33.10;86.40;;;;;;5054485;28;19913;-74
2022/08/24 11:52:20;;;;;;;;;;;33.50;86.50;;;;;;5055969;28;19959;-76
2022/08/24 11:54:55;;;;;;;;;;;34.10;86.00;;;;;;5060925;28;19924;-75
2022/08/24 11:57:30;;;;;;;;;;;34.90;85.40;;;;;;5050317;28;20007;-76
2022/08/24 12:00:01;;;;;;;;;;;35.30;84.80;;;;;;5054169;28;20276;-75
2022/08/24 12:02:35;;;;;;;;;;;34.80;83.90;;;;;;5052470;28;20024;-75
2022/08/24 12:05:16;;;;;;;;;;;34.10;85.10;;;;;;5051147;28;19917;-76
2022/08/24 12:07:41;;;;;;;;;;;33.50;84.80;;;;;;5053637;28;19917;-76
2022/08/24 12:10:13;;;;;;;;;;;33.20;86.00;;;;;;5053065;28;19909;-76
2022/08/24 12:12:45;;;;;;;;;;;33.00;86.70;;;;;;5051707;28;19913;-71
2022/08/24 12:15:14;;;;;;;;;;;33.40;86.50;;;;;;5051443;28;20375;-73
2022/08/24 12:17:57;;;;;;;;;;;34.50;85.10;;;;;;5054241;28;19916;-75
2022/08/24 12:20:31;;;;;;;;;;;34.70;84.00;;;;;;5055628;28;19916;-75
2022/08/24 12:23:23;;;;;;;;;;;35.10;84.10;;;;;;5057288;28;19917;-76
2022/08/24 12:26:02;;;;;;;;;;;35.20;84.00;;;;;;5050366;28;19996;-71
2022/08/24 12:28:35;;;;;;;;;;;34.80;83.50;;;;;;5059476;28;20352;-76
2022/08/24 12:31:14;;;;;;;;;;;34.10;84.50;;;;;;5055758;28;19999;-76
2022/08/24 12:33:44;;;;;;;;;;;34.20;84.80;;;;;;5055353;28;20376;-76
2022/08/24 12:36:16;;;;;;;;;;;34.30;83.80;;;;;;5052482;28;19913;-76
2022/08/24 12:38:44;;;;;;;;;;;34.00;82.80;;;;;;5053230;28;20007;-75
2022/08/24 12:41:10;;;;;;;;;;;34.10;83.70;;;;;;5046824;28;20051;-72
2022/08/24 12:43:42;;;;;;;;;;;34.20;82.70;;;;;;5047197;28;20395;-76
2022/08/24 12:46:10;;;;;;;;;;;34.40;83.00;;;;;;5055855;28;19923;-72
2022/08/24 12:48:41;;;;;;;;;;;34.40;82.30;;;;;;5056710;28;19913;-77
2022/08/24 12:51:25;;;;;;;;;;;34.50;83.30;;;;;;5050286;28;19909;-76
2022/08/24 12:54:01;;;;;;;;;;;34.40;83.10;;;;;;5057460;28;20368;-72
2022/08/24 12:56:35;;;;;;;;;;;34.50;83.20;;;;;;5052930;28;19909;-76
2022/08/24 12:59:23;;;;;;;;;;;34.60;82.70;;;;;;5052521;28;19912;-72
2022/08/24 13:02:01;;;;;;;;;;;34.00;83.00;;;;;;5050407;28;19913;-76
2022/08/24 13:04:27;;;;;;;;;;;34.40;83.40;;;;;;5056038;28;19909;-72
2022/08/24 13:07:11;;;;;;;;;;;34.90;81.80;;;;;;5054313;28;20417;-72
2022/08/24 13:09:42;;;;;;;;;;;35.00;82.40;;;;;;5052933;28;19916;-76
2022/08/24 13:12:26;;;;;;;;;;;34.90;81.50;;;;;;5061925;28;19919;-76
2022/08/24 13:14:51;;;;;;;;;;;35.10;81.80;;;;;;5054736;28;20367;-76
2022/08/24 13:17:17;;;;;;;;;;;35.10;81.70;;;;;;5054595;28;19919;-71
2022/08/24 13:19:45;;;;;;;;;;;35.10;81.00;;;;;;5036539;28;19998;-71
2022/08/24 13:22:11;;;;;;;;;;;34.80;81.80;;;;;;5053194;28;19912;-75
2022/08/24 13:24:40;;;;;;;;;;;34.90;81.90;;;;;;5041922;28;20380;-75
2022/08/24 13:27:11;;;;;;;;;;;34.90;81.00;;;;;;5051607;28;19912;-71
2022/08/24 13:29:41;;;;;;;;;;;35.00;80.80;;;;;;5057837;28;19927;-71
2022/08/24 13:32:11;;;;;;;;;;;35.20;81.10;;;;;;5051966;28;19924;-75
2022/08/24 13:34:39;;;;;;;;;;;35.50;80.30;;;;;;5054292;28;19924;-76
2022/08/24 13:37:09;;;;;;;;;;;35.60;80.00;;;;;;5050418;28;19931;-75
2022/08/24 13:39:40;;;;;;;;;;;35.60;78.80;;;;;;5048405;28;20402;-76
2022/08/24 13:42:15;;;;;;;;;;;35.20;79.50;;;;;;5053758;28;19928;-72
2022/08/24 13:44:41;;;;;;;;;;;35.00;80.00;;;;;;5051350;28;19915;-71
2022/08/24 13:47:06;;;;;;;;;;;35.00;80.30;;;;;;5056967;28;19912;-73
2022/08/24 13:49:32;;;;;;;;;;;35.00;79.80;;;;;;5057700;28;19927;-71
2022/08/24 13:52:19;;;;;;;;;;;35.20;80.60;;;;;;5052492;28;20391;-72
2022/08/24 13:54:47;;;;;;;;;;;35.80;79.70;;;;;;5054473;28;19916;-72
2022/08/24 13:57:13;;;;;;;;;;;35.60;78.90;;;;;;5051782;28;20000;-72
2022/08/24 13:59:54;;;;;;;;;;;35.70;79.20;;;;;;5052042;28;20007;-76
2022/08/24 14:02:28;;;;;;;;;;;36.00;79.20;;;;;;5050439;28;19917;-72
2022/08/24 14:05:13;;;;;;;;;;;36.30;79.40;;;;;;5050610;28;19909;-75
2022/08/24 14:07:42;;;;;;;;;;;36.30;78.40;;;;;;5057782;28;19923;-75
2022/08/24 14:10:34;;;;;;;;;;;35.90;79.00;;;;;;5056410;28;20402;-71
2022/08/24 14:13:19;;;;;;;;;;;36.40;78.70;;;;;;5064052;28;19920;-74
2022/08/24 14:18:55;;;;;;;;;;;36.80;76.60;;;;;;5049784;28;19970;-72
2022/08/24 14:21:23;;;;;;;;;;;36.70;76.80;;;;;;5047152;28;19916;-73
2022/08/24 14:23:51;;;;;;;;;;;36.40;77.40;;;;;;5055429;28;19912;-72
2022/08/24 14:26:31;;;;;;;;;;;36.90;77.30;;;;;;5049544;28;20004;-72
2022/08/24 14:29:16;;;;;;;;;;;38.00;76.50;;;;;;5041020;28;20335;-76
2022/08/24 14:32:01;;;;;;;;;;;39.40;74.80;;;;;;5051513;28;19947;-75
2022/08/24 14:34:38;;;;;;;;;;;39.70;74.60;;;;;;5051960;28;19923;-75
2022/08/24 14:37:17;;;;;;;;;;;39.10;74.20;;;;;;5052065;28;19928;-72
2022/08/24 14:39:54;;;;;;;;;;;38.60;74.60;;;;;;5050863;28;19915;-75
2022/08/24 14:42:23;;;;;;;;;;;38.40;75.40;;;;;;5043353;28;20394;-76